createdAt,value
2018-08-04T00:00:01.466Z,7.60
2018-08-04T00:01:56.003Z,7.70
2018-08-04T00:02:54.537Z,7.40
2018-08-04T00:04:47.764Z,7.10
2018-08-04T00:05:47.759Z,7.40
2018-08-04T00:07:42.697Z,7.40
2018-08-04T00:08:42.130Z,7.20
2018-08-04T00:10:35.633Z,7.60
2018-08-04T00:11:35.213Z,7.50
2018-08-04T00:13:28.872Z,7.70
2018-08-04T00:14:28.838Z,7.40
2018-08-04T00:16:24.582Z,7.40
2018-08-04T00:17:23.303Z,7.20
2018-08-04T00:19:16.935Z,7.30
2018-08-04T00:20:17.265Z,7.00
2018-08-04T00:22:10.582Z,6.80
2018-08-04T00:23:10.299Z,7.50
2018-08-04T00:25:04.098Z,7.10
2018-08-04T00:26:03.672Z,7.40
2018-08-04T00:27:57.399Z,7.60
2018-08-04T00:28:57.370Z,7.40
2018-08-04T00:30:50.401Z,7.30
2018-08-04T00:31:49.965Z,7.50
2018-08-04T00:33:43.950Z,7.20
2018-08-04T00:34:43.626Z,7.90
2018-08-04T00:36:37.044Z,7.40
2018-08-04T00:37:37.057Z,7.80
2018-08-04T00:39:30.391Z,7.60
2018-08-04T00:40:30.419Z,8.10
2018-08-04T00:42:23.839Z,6.80
2018-08-04T00:43:23.795Z,7.10
2018-08-04T00:45:17.272Z,7.40
2018-08-04T00:46:17.211Z,7.40
2018-08-04T00:48:10.618Z,7.30
2018-08-04T00:49:10.257Z,7.40
2018-08-04T00:51:03.411Z,7.00
2018-08-04T00:52:03.399Z,6.90
2018-08-04T00:53:57.463Z,7.30
2018-08-04T00:54:56.801Z,7.20
2018-08-04T00:56:50.274Z,7.00
2018-08-04T00:57:49.703Z,7.50
2018-08-04T00:59:43.084Z,6.70
2018-08-04T01:00:43.119Z,6.90
2018-08-04T01:02:36.475Z,6.30
2018-08-04T01:03:36.187Z,7.60
2018-08-04T01:05:29.914Z,6.50
2018-08-04T01:06:29.824Z,6.80
2018-08-04T01:08:23.219Z,7.20
2018-08-04T01:09:23.265Z,7.20
2018-08-04T01:11:16.674Z,7.20
2018-08-04T01:12:16.594Z,6.70
2018-08-04T01:14:09.262Z,7.30
2018-08-04T01:15:09.206Z,7.40
2018-08-04T01:17:02.928Z,7.20
2018-08-04T01:18:02.617Z,7.00
2018-08-04T01:19:56.283Z,7.10
2018-08-04T01:20:56.292Z,6.60
2018-08-04T01:22:49.471Z,7.20
2018-08-04T01:23:49.735Z,6.70
2018-08-04T01:25:43.171Z,7.00
2018-08-04T01:26:42.840Z,6.50
2018-08-04T01:28:36.546Z,6.50
2018-08-04T01:29:36.213Z,7.20
2018-08-04T01:31:29.936Z,7.50
2018-08-04T01:32:29.892Z,7.40
2018-08-04T01:34:24.467Z,6.70
2018-08-04T01:35:23.288Z,6.90
2018-08-04T01:37:16.681Z,6.70
2018-08-04T01:38:17.234Z,7.00
2018-08-04T01:40:10.365Z,6.80
2018-08-04T01:41:10.030Z,7.10
2018-08-04T01:43:03.207Z,6.40
2018-08-04T01:44:03.222Z,6.90
2018-08-04T01:45:55.828Z,7.00
2018-08-04T01:46:56.075Z,6.60
2018-08-04T01:48:49.474Z,7.00
2018-08-04T01:49:49.168Z,6.70
2018-08-04T01:51:44.396Z,7.20
2018-08-04T01:52:42.875Z,6.90
2018-08-04T01:54:36.310Z,7.30
2018-08-04T01:55:35.927Z,7.40
2018-08-04T01:57:29.689Z,7.40
2018-08-04T01:58:29.626Z,7.50
2018-08-04T02:00:23.581Z,6.40
2018-08-04T02:01:23.013Z,7.00
2018-08-04T02:03:16.932Z,6.90
2018-08-04T02:04:15.688Z,7.00
2018-08-04T02:06:09.471Z,6.90
2018-08-04T02:07:08.884Z,6.90
2018-08-04T02:09:02.819Z,7.30
2018-08-04T02:10:01.796Z,7.40
2018-08-04T02:11:55.456Z,6.70
2018-08-04T02:12:55.125Z,7.20
2018-08-04T02:14:49.536Z,7.60
2018-08-04T02:15:49.236Z,7.60
2018-08-04T02:17:43.989Z,7.10
2018-08-04T02:18:43.921Z,7.30
2018-08-04T02:20:37.308Z,7.20
2018-08-04T02:21:37.029Z,6.90
2018-08-04T02:23:30.979Z,7.70
2018-08-04T02:24:30.702Z,7.30
2018-08-04T02:26:24.379Z,7.50
2018-08-04T02:27:24.046Z,7.70
2018-08-04T02:29:17.542Z,6.70
2018-08-04T02:30:17.469Z,6.90
2018-08-04T02:32:11.424Z,7.60
2018-08-04T02:33:11.347Z,7.00
2018-08-04T02:35:04.486Z,7.30
2018-08-04T02:36:04.774Z,7.00
2018-08-04T02:37:59.213Z,6.90
2018-08-04T02:38:57.887Z,6.70
2018-08-04T02:40:51.596Z,7.10
2018-08-04T02:41:51.287Z,7.10
2018-08-04T02:43:44.986Z,6.90
2018-08-04T02:44:44.641Z,7.30
2018-08-04T02:46:38.401Z,7.10
2018-08-04T02:47:37.820Z,6.70
2018-08-04T02:49:31.235Z,6.50
2018-08-04T02:50:31.196Z,6.80
2018-08-04T02:52:24.620Z,7.10
2018-08-04T02:53:24.540Z,7.20
2018-08-04T02:55:17.786Z,6.80
2018-08-04T02:56:17.983Z,6.90
2018-08-04T02:58:10.586Z,7.90
2018-08-04T02:59:10.859Z,7.60
2018-08-04T03:01:03.731Z,7.00
2018-08-04T03:02:03.770Z,6.90
2018-08-04T03:03:56.615Z,7.00
2018-08-04T03:04:56.655Z,7.10
2018-08-04T03:06:50.111Z,6.70
2018-08-04T03:07:50.075Z,6.70
2018-08-04T03:09:45.689Z,6.90
2018-08-04T03:10:44.987Z,6.60
2018-08-04T03:12:37.799Z,7.50
2018-08-04T03:13:37.757Z,7.00
2018-08-04T03:15:32.733Z,7.40
2018-08-04T03:16:30.871Z,7.40
2018-08-04T03:18:24.536Z,7.00
2018-08-04T03:19:24.575Z,7.10
2018-08-04T03:21:19.559Z,6.70
2018-08-04T03:22:18.636Z,7.30
2018-08-04T03:24:12.378Z,6.90
2018-08-04T03:25:12.023Z,7.10
2018-08-04T03:27:07.230Z,6.60
2018-08-04T03:28:05.711Z,6.90
2018-08-04T03:29:59.161Z,7.20
2018-08-04T03:30:59.119Z,7.20
2018-08-04T03:32:55.297Z,6.40
2018-08-04T03:33:54.991Z,7.10
2018-08-04T03:35:48.387Z,7.00
2018-08-04T03:36:48.415Z,6.70
2018-08-04T03:38:42.321Z,6.80
2018-08-04T03:39:41.795Z,7.20
2018-08-04T03:41:35.295Z,6.90
2018-08-04T03:42:34.868Z,6.70
2018-08-04T03:44:28.327Z,6.90
2018-08-04T03:45:28.585Z,7.00
2018-08-04T03:47:21.522Z,6.50
2018-08-04T03:48:21.422Z,6.30
2018-08-04T03:50:14.869Z,7.10
2018-08-04T03:51:14.841Z,6.70
2018-08-04T03:53:07.738Z,6.80
2018-08-04T03:54:07.768Z,6.80
2018-08-04T03:56:02.617Z,6.80
2018-08-04T03:57:00.794Z,7.50
2018-08-04T03:58:55.734Z,6.90
2018-08-04T03:59:54.446Z,7.20
2018-08-04T04:01:47.375Z,7.00
2018-08-04T04:02:47.332Z,7.20
2018-08-04T04:04:40.244Z,7.40
2018-08-04T04:05:40.229Z,6.60
2018-08-04T04:07:33.124Z,6.90
2018-08-04T04:08:33.164Z,6.80
2018-08-04T04:10:27.592Z,7.00
2018-08-04T04:11:27.544Z,7.10
2018-08-04T04:13:25.508Z,7.10
2018-08-04T04:14:20.912Z,7.10
2018-08-04T04:16:14.345Z,7.30
2018-08-04T04:17:14.307Z,6.90
2018-08-04T04:19:07.492Z,7.60
2018-08-04T04:20:07.195Z,7.40
2018-08-04T04:22:00.654Z,7.00
2018-08-04T04:23:00.558Z,7.60
2018-08-04T04:24:54.021Z,6.80
2018-08-04T04:25:53.704Z,7.60
2018-08-04T04:27:48.619Z,7.50
2018-08-04T04:28:47.350Z,7.30
2018-08-04T04:30:40.455Z,7.30
2018-08-04T04:31:40.709Z,7.50
2018-08-04T04:33:35.116Z,7.00
2018-08-04T04:34:34.817Z,7.60
2018-08-04T04:36:28.604Z,7.10
2018-08-04T04:37:28.441Z,7.10
2018-08-04T04:39:21.379Z,7.40
2018-08-04T04:40:21.090Z,7.30
2018-08-04T04:42:15.484Z,6.80
2018-08-04T04:43:15.740Z,6.90
2018-08-04T04:45:08.671Z,7.00
2018-08-04T04:46:08.664Z,7.00
2018-08-04T04:48:02.062Z,6.30
2018-08-04T04:49:01.752Z,7.10
2018-08-04T04:50:55.444Z,6.30
2018-08-04T04:51:55.404Z,6.80
2018-08-04T04:53:48.331Z,6.40
2018-08-04T04:54:48.301Z,5.90
2018-08-04T04:56:41.249Z,6.70
2018-08-04T04:57:41.228Z,6.30
2018-08-04T04:59:35.203Z,5.80
2018-08-04T05:00:34.310Z,6.30
2018-08-04T05:02:28.017Z,6.60
2018-08-04T05:03:27.953Z,6.40
2018-08-04T05:05:20.970Z,6.40
2018-08-04T05:06:20.596Z,6.50
2018-08-04T05:08:15.546Z,5.50
2018-08-04T05:09:14.239Z,6.10
2018-08-04T05:11:07.909Z,5.80
2018-08-04T05:12:07.350Z,6.20
2018-08-04T05:14:00.831Z,5.60
2018-08-04T05:15:00.987Z,5.60
2018-08-04T05:16:53.945Z,5.60
2018-08-04T05:17:54.458Z,5.70
2018-08-04T05:19:46.851Z,5.80
2018-08-04T05:20:46.515Z,5.60
2018-08-04T05:22:41.304Z,6.00
2018-08-04T05:23:39.670Z,5.60
2018-08-04T05:25:33.123Z,5.50
2018-08-04T05:26:33.073Z,5.90
2018-08-04T05:28:26.514Z,5.80
2018-08-04T05:29:26.174Z,5.80
2018-08-04T05:31:19.442Z,5.30
2018-08-04T05:32:19.350Z,5.40
2018-08-04T05:34:11.995Z,5.50
2018-08-04T05:35:12.206Z,5.90
2018-08-04T05:37:06.691Z,5.40
2018-08-04T05:38:05.646Z,5.80
2018-08-04T05:39:59.046Z,5.40
2018-08-04T05:40:58.722Z,5.40
2018-08-04T05:42:55.175Z,5.30
2018-08-04T05:43:54.942Z,5.50
2018-08-04T05:45:47.892Z,5.10
2018-08-04T05:46:47.841Z,5.20
2018-08-04T05:48:41.156Z,5.40
2018-08-04T05:49:40.898Z,5.30
2018-08-04T05:51:34.618Z,5.30
2018-08-04T05:52:34.836Z,5.30
2018-08-04T05:54:27.907Z,5.20
2018-08-04T05:55:27.988Z,4.90
2018-08-04T05:57:21.444Z,5.20
2018-08-04T05:58:20.979Z,5.20
2018-08-04T06:00:14.388Z,4.90
2018-08-04T06:01:14.131Z,5.00
2018-08-04T06:03:07.079Z,5.00
2018-08-04T06:04:07.275Z,5.00
2018-08-04T06:06:02.278Z,5.10
2018-08-04T06:07:00.647Z,4.90
2018-08-04T06:08:54.118Z,4.70
2018-08-04T06:09:54.066Z,4.90
2018-08-04T06:11:49.357Z,5.00
2018-08-04T06:12:47.460Z,4.90
2018-08-04T06:14:40.492Z,4.70
2018-08-04T06:15:40.360Z,4.80
2018-08-04T06:17:47.792Z,4.80
2018-08-04T06:18:33.436Z,4.80
2018-08-04T06:20:26.642Z,4.60
2018-08-04T06:21:26.657Z,4.90
2018-08-04T06:23:21.591Z,4.90
2018-08-04T06:24:20.606Z,5.20
2018-08-04T06:26:13.240Z,5.00
2018-08-04T06:27:13.548Z,4.40
2018-08-04T06:29:06.898Z,4.70
2018-08-04T06:30:08.111Z,4.70
2018-08-04T06:32:00.869Z,5.20
2018-08-04T06:33:00.499Z,5.30
2018-08-04T06:34:54.278Z,4.90
2018-08-04T06:35:54.201Z,4.50
2018-08-04T06:37:47.633Z,5.00
2018-08-04T06:38:47.310Z,5.00
2018-08-04T06:40:41.775Z,4.70
2018-08-04T06:41:41.041Z,5.50
2018-08-04T06:43:34.678Z,5.10
2018-08-04T06:44:34.304Z,4.80
2018-08-04T06:46:27.774Z,4.80
2018-08-04T06:47:27.746Z,4.70
2018-08-04T06:49:21.313Z,4.90
2018-08-04T06:50:20.957Z,4.80
2018-08-04T06:52:17.178Z,5.10
2018-08-04T06:53:16.949Z,4.80
2018-08-04T06:55:10.696Z,4.80
2018-08-04T06:56:10.309Z,4.90
2018-08-04T06:58:04.121Z,5.40
2018-08-04T06:59:03.204Z,5.30
2018-08-04T07:00:56.655Z,4.50
2018-08-04T07:01:56.622Z,4.90
2018-08-04T07:03:50.333Z,4.50
2018-08-04T07:04:50.018Z,4.70
2018-08-04T07:06:43.747Z,4.20
2018-08-04T07:07:43.419Z,4.60
2018-08-04T07:09:36.714Z,4.50
2018-08-04T07:10:36.352Z,4.60
2018-08-04T07:12:29.570Z,5.00
2018-08-04T07:13:29.313Z,4.90
2018-08-04T07:15:22.808Z,4.30
2018-08-04T07:16:22.742Z,4.50
2018-08-04T07:18:15.834Z,4.50
2018-08-04T07:19:15.636Z,4.50
2018-08-04T07:21:09.330Z,4.20
2018-08-04T07:22:09.024Z,4.30
2018-08-04T07:24:02.488Z,4.70
2018-08-04T07:25:02.463Z,4.90
2018-08-04T07:26:55.674Z,4.90
2018-08-04T07:27:55.323Z,4.50
2018-08-04T07:29:48.245Z,4.80
2018-08-04T07:30:50.787Z,4.90
2018-08-04T07:32:41.484Z,4.20
2018-08-04T07:33:41.182Z,4.60
2018-08-04T07:35:35.945Z,4.80
2018-08-04T07:36:37.074Z,4.80
2018-08-04T07:38:28.335Z,4.60
2018-08-04T07:39:27.995Z,4.70
2018-08-04T07:41:20.927Z,4.80
2018-08-04T07:42:20.877Z,4.50
2018-08-04T07:44:14.850Z,4.70
2018-08-04T07:45:14.857Z,4.60
2018-08-04T07:47:08.779Z,4.70
2018-08-04T07:48:08.231Z,5.20
2018-08-04T07:50:01.424Z,5.60
2018-08-04T07:51:01.134Z,5.20
2018-08-04T07:52:54.336Z,4.60
2018-08-04T07:53:54.054Z,4.70
2018-08-04T07:55:47.748Z,4.60
2018-08-04T07:56:47.083Z,4.60
2018-08-04T07:58:41.484Z,4.60
2018-08-04T07:59:41.480Z,5.20
2018-08-04T08:01:35.918Z,5.50
2018-08-04T08:02:34.874Z,5.50
2018-08-04T08:04:28.269Z,5.20
2018-08-04T08:05:28.252Z,5.40
2018-08-04T08:07:21.167Z,5.60
2018-08-04T08:08:21.179Z,5.20
2018-08-04T08:10:14.634Z,5.80
2018-08-04T08:11:14.752Z,4.80
2018-08-04T08:13:08.028Z,5.20
2018-08-04T08:14:08.007Z,5.30
2018-08-04T08:16:01.205Z,5.80
2018-08-04T08:17:00.910Z,5.10
2018-08-04T08:18:53.811Z,5.00
2018-08-04T08:19:53.804Z,5.30
2018-08-04T08:21:48.548Z,5.20
2018-08-04T08:22:47.215Z,5.50
2018-08-04T08:24:40.124Z,5.50
2018-08-04T08:25:40.141Z,6.00
2018-08-04T08:27:33.027Z,5.30
2018-08-04T08:28:33.017Z,5.30
2018-08-04T08:30:26.431Z,5.40
2018-08-04T08:31:26.518Z,5.30
2018-08-04T08:33:19.337Z,5.40
2018-08-04T08:34:19.863Z,5.10
2018-08-04T08:36:12.301Z,5.00
2018-08-04T08:37:12.244Z,5.20
2018-08-04T08:39:05.639Z,5.70
2018-08-04T08:40:05.621Z,5.30
2018-08-04T08:41:58.534Z,5.40
2018-08-04T08:42:58.518Z,6.00
2018-08-04T08:44:51.971Z,5.60
2018-08-04T08:45:51.442Z,5.60
2018-08-04T08:47:44.418Z,5.20
2018-08-04T08:48:44.333Z,5.60
2018-08-04T08:50:37.262Z,5.50
2018-08-04T08:51:37.226Z,5.50
2018-08-04T08:53:30.322Z,5.10
2018-08-04T08:54:30.128Z,4.90
2018-08-04T08:56:23.590Z,5.20
2018-08-04T08:57:23.561Z,5.40
2018-08-04T08:59:17.324Z,5.80
2018-08-04T09:00:16.466Z,5.50
2018-08-04T09:02:10.206Z,5.50
2018-08-04T09:03:10.188Z,4.90
2018-08-04T09:05:02.825Z,5.70
2018-08-04T09:06:03.174Z,4.70
2018-08-04T09:07:55.990Z,5.10
2018-08-04T09:08:56.009Z,5.00
2018-08-04T09:10:49.551Z,5.60
2018-08-04T09:11:49.334Z,5.10
2018-08-04T09:13:42.780Z,5.00
2018-08-04T09:14:42.480Z,5.00
2018-08-04T09:16:35.887Z,4.90
2018-08-04T09:17:35.860Z,4.90
2018-08-04T09:19:29.813Z,5.20
2018-08-04T09:20:29.834Z,5.30
2018-08-04T09:22:22.660Z,5.20
2018-08-04T09:23:23.006Z,4.90
2018-08-04T09:25:16.336Z,5.20
2018-08-04T09:26:16.317Z,4.60
2018-08-04T09:28:10.668Z,5.00
2018-08-04T09:29:10.052Z,5.00
2018-08-04T09:31:03.602Z,4.70
2018-08-04T09:32:03.125Z,5.00
2018-08-04T09:33:56.507Z,5.30
2018-08-04T09:34:56.503Z,4.80
2018-08-04T09:36:50.280Z,4.90
2018-08-04T09:37:49.968Z,4.90
2018-08-04T09:39:42.980Z,5.30
2018-08-04T09:40:42.801Z,5.70
2018-08-04T09:42:36.016Z,5.30
2018-08-04T09:43:35.709Z,4.80
2018-08-04T09:45:28.880Z,5.20
2018-08-04T09:46:28.648Z,5.70
2018-08-04T09:48:22.006Z,4.60
2018-08-04T09:49:21.991Z,4.60
2018-08-04T09:51:14.956Z,5.40
2018-08-04T09:52:14.889Z,5.00
2018-08-04T09:54:08.310Z,5.20
2018-08-04T09:55:08.281Z,4.90
2018-08-04T09:57:01.796Z,4.90
2018-08-04T09:58:02.232Z,4.80
2018-08-04T09:59:54.704Z,5.10
2018-08-04T10:00:54.590Z,4.70
2018-08-04T10:02:47.670Z,5.10
2018-08-04T10:03:47.479Z,4.70
2018-08-04T10:05:40.400Z,5.20
2018-08-04T10:06:40.406Z,5.00
2018-08-04T10:08:33.867Z,5.10
2018-08-04T10:09:33.776Z,4.90
2018-08-04T10:11:27.335Z,4.70
2018-08-04T10:12:27.246Z,5.00
2018-08-04T10:14:20.206Z,4.70
2018-08-04T10:15:20.138Z,4.40
2018-08-04T10:17:13.551Z,4.90
2018-08-04T10:18:13.539Z,5.30
2018-08-04T10:20:07.497Z,4.60
2018-08-04T10:21:06.926Z,4.50
2018-08-04T10:23:00.513Z,4.40
2018-08-04T10:24:00.317Z,4.90
2018-08-04T10:25:53.273Z,4.60
2018-08-04T10:26:53.221Z,5.20
2018-08-04T10:28:46.614Z,4.60
2018-08-04T10:29:46.610Z,4.50
2018-08-04T10:31:39.589Z,4.70
2018-08-04T10:32:39.541Z,4.60
2018-08-04T10:34:32.561Z,4.40
2018-08-04T10:35:32.416Z,4.40
2018-08-04T10:37:25.429Z,5.00
2018-08-04T10:38:25.305Z,5.00
2018-08-04T10:40:18.228Z,4.40
2018-08-04T10:41:18.343Z,4.90
2018-08-04T10:43:11.623Z,4.60
2018-08-04T10:44:11.611Z,4.70
2018-08-04T10:46:04.665Z,4.20
2018-08-04T10:47:04.527Z,4.70
2018-08-04T10:48:57.646Z,4.50
2018-08-04T10:49:57.407Z,4.40
2018-08-04T10:51:50.318Z,4.40
2018-08-04T10:52:50.316Z,4.50
2018-08-04T10:54:43.215Z,4.80
2018-08-04T10:55:43.224Z,4.30
2018-08-04T10:57:36.304Z,4.50
2018-08-04T10:58:36.113Z,4.50
2018-08-04T11:00:29.623Z,4.40
2018-08-04T11:01:29.508Z,4.10
2018-08-04T11:03:22.600Z,4.30
2018-08-04T11:04:22.422Z,4.10
2018-08-04T11:06:16.473Z,4.10
2018-08-04T11:07:15.416Z,4.30
2018-08-04T11:09:10.525Z,4.30
2018-08-04T11:10:08.807Z,4.50
2018-08-04T11:12:02.200Z,4.20
2018-08-04T11:13:02.187Z,4.20
2018-08-04T11:14:55.735Z,4.70
2018-08-04T11:15:55.610Z,4.40
2018-08-04T11:17:49.921Z,4.60
2018-08-04T11:18:48.996Z,4.10
2018-08-04T11:20:41.932Z,4.10
2018-08-04T11:21:41.896Z,4.00
2018-08-04T11:23:35.002Z,4.20
2018-08-04T11:24:34.807Z,3.80
2018-08-04T11:26:27.763Z,4.10
2018-08-04T11:27:27.679Z,3.90
2018-08-04T11:29:21.171Z,4.00
2018-08-04T11:30:20.573Z,4.30
2018-08-04T11:32:13.498Z,4.30
2018-08-04T11:33:13.484Z,3.80
2018-08-04T11:35:06.923Z,3.60
2018-08-04T11:36:06.867Z,3.90
2018-08-04T11:38:00.358Z,3.70
2018-08-04T11:39:00.261Z,3.60
2018-08-04T11:40:54.212Z,3.70
2018-08-04T11:41:53.648Z,3.20
2018-08-04T11:43:47.370Z,3.80
2018-08-04T11:44:48.518Z,3.90
2018-08-04T11:46:40.700Z,3.60
2018-08-04T11:47:40.504Z,3.80
2018-08-04T11:49:34.121Z,3.60
2018-08-04T11:50:33.839Z,3.10
2018-08-04T11:52:27.817Z,3.70
2018-08-04T11:53:27.785Z,3.40
2018-08-04T11:55:21.408Z,3.20
2018-08-04T11:56:21.188Z,3.50
2018-08-04T11:58:14.447Z,3.50
2018-08-04T11:59:14.177Z,3.70
2018-08-04T12:01:07.839Z,3.60
2018-08-04T12:02:07.562Z,3.00
2018-08-04T12:04:00.747Z,3.30
2018-08-04T12:05:01.012Z,3.30
2018-08-04T12:06:53.639Z,3.10
2018-08-04T12:07:53.349Z,3.30
2018-08-04T12:09:46.859Z,3.20
2018-08-04T12:10:46.749Z,3.50
2018-08-04T12:12:40.161Z,3.20
2018-08-04T12:13:40.216Z,3.10
2018-08-04T12:15:33.831Z,3.30
2018-08-04T12:16:33.767Z,3.10
2018-08-04T12:18:26.821Z,3.20
2018-08-04T12:19:26.433Z,3.00
2018-08-04T12:21:20.094Z,3.10
2018-08-04T12:22:19.830Z,3.10
2018-08-04T12:24:13.485Z,2.90
2018-08-04T12:25:13.227Z,3.00
2018-08-04T12:27:06.761Z,3.10
2018-08-04T12:28:06.630Z,2.60
2018-08-04T12:30:00.069Z,2.80
2018-08-04T12:31:00.013Z,2.90
2018-08-04T12:32:53.737Z,2.90
2018-08-04T12:33:53.730Z,3.10
2018-08-04T12:35:46.695Z,2.90
2018-08-04T12:36:46.295Z,2.80
2018-08-04T12:38:39.728Z,2.50
2018-08-04T12:39:39.784Z,2.60
2018-08-04T12:41:32.634Z,2.70
2018-08-04T12:42:32.624Z,3.10
2018-08-04T12:44:25.536Z,2.80
2018-08-04T12:45:25.537Z,2.70
2018-08-04T12:47:18.982Z,3.10
2018-08-04T12:48:18.499Z,2.90
2018-08-04T12:50:11.911Z,3.00
2018-08-04T12:51:11.889Z,2.90
2018-08-04T12:53:05.297Z,2.70
2018-08-04T12:54:05.283Z,2.80
2018-08-04T12:55:58.719Z,3.00
2018-08-04T12:56:58.689Z,2.80
2018-08-04T12:58:51.589Z,2.80
2018-08-04T12:59:51.573Z,2.90
2018-08-04T13:01:44.600Z,2.80
2018-08-04T13:02:44.492Z,2.70
2018-08-04T13:04:37.451Z,2.80
2018-08-04T13:05:37.387Z,2.70
2018-08-04T13:07:31.357Z,2.90
2018-08-04T13:08:31.346Z,2.80
2018-08-04T13:10:24.782Z,2.90
2018-08-04T13:11:24.763Z,3.10
2018-08-04T13:13:18.236Z,2.90
2018-08-04T13:14:18.152Z,2.70
2018-08-04T13:16:11.574Z,3.20
2018-08-04T13:17:11.559Z,3.40
2018-08-04T13:19:04.985Z,2.60
2018-08-04T13:20:04.957Z,2.90
2018-08-04T13:21:58.483Z,2.90
2018-08-04T13:22:58.364Z,2.80
2018-08-04T13:24:51.820Z,2.70
2018-08-04T13:25:51.741Z,2.80
2018-08-04T13:27:44.675Z,2.80
2018-08-04T13:28:44.643Z,3.00
2018-08-04T13:30:37.689Z,2.70
2018-08-04T13:31:37.558Z,2.60
2018-08-04T13:33:30.954Z,2.60
2018-08-04T13:34:30.926Z,2.70
2018-08-04T13:36:23.857Z,3.10
2018-08-04T13:37:23.888Z,2.80
2018-08-04T13:39:17.344Z,2.90
2018-08-04T13:40:17.245Z,3.00
2018-08-04T13:42:10.741Z,2.60
2018-08-04T13:43:10.633Z,3.00
2018-08-04T13:45:03.602Z,3.00
2018-08-04T13:46:03.552Z,3.00
2018-08-04T13:47:57.008Z,3.10
2018-08-04T13:48:57.502Z,2.80
2018-08-04T13:50:49.871Z,3.00
2018-08-04T13:51:49.836Z,2.90
2018-08-04T13:53:42.767Z,2.70
2018-08-04T13:54:42.734Z,2.60
2018-08-04T13:56:35.706Z,2.40
2018-08-04T13:57:35.623Z,2.60
2018-08-04T13:59:29.057Z,2.20
2018-08-04T14:00:29.015Z,2.50
2018-08-04T14:02:22.456Z,2.30
2018-08-04T14:03:22.422Z,2.50
2018-08-04T14:05:15.840Z,2.50
2018-08-04T14:06:15.822Z,2.50
2018-08-04T14:08:08.732Z,2.40
2018-08-04T14:09:08.720Z,2.40
2018-08-04T14:11:01.693Z,2.80
2018-08-04T14:12:01.663Z,2.70
2018-08-04T14:13:54.553Z,2.60
2018-08-04T14:14:54.518Z,2.70
2018-08-04T14:16:47.431Z,2.90
2018-08-04T14:17:47.415Z,3.10
2018-08-04T14:19:40.818Z,2.40
2018-08-04T14:20:40.795Z,2.70
2018-08-04T14:22:34.235Z,2.70
2018-08-04T14:23:34.200Z,3.20
2018-08-04T14:25:27.113Z,2.40
2018-08-04T14:26:27.104Z,2.50
2018-08-04T14:28:20.190Z,2.50
2018-08-04T14:29:20.019Z,2.90
2018-08-04T14:31:14.447Z,2.90
2018-08-04T14:32:13.400Z,2.60
2018-08-04T14:34:06.313Z,2.70
2018-08-04T14:35:06.434Z,2.60
2018-08-04T14:36:59.224Z,2.80
2018-08-04T14:37:59.253Z,2.80
2018-08-04T14:39:52.114Z,2.80
2018-08-04T14:40:52.103Z,2.40
2018-08-04T14:42:45.626Z,2.70
2018-08-04T14:43:45.516Z,2.60
2018-08-04T14:45:38.913Z,2.40
2018-08-04T14:46:38.880Z,2.40
2018-08-04T14:48:31.813Z,2.70
2018-08-04T14:49:31.847Z,2.50
2018-08-04T14:51:25.761Z,2.90
2018-08-04T14:52:25.198Z,2.60
2018-08-04T14:54:18.604Z,2.50
2018-08-04T14:55:18.581Z,2.60
2018-08-04T14:57:11.623Z,2.50
2018-08-04T14:58:11.580Z,2.50
2018-08-04T15:00:04.557Z,2.50
2018-08-04T15:01:04.499Z,2.40
2018-08-04T15:02:57.408Z,2.50
2018-08-04T15:03:57.504Z,2.60
2018-08-04T15:05:50.846Z,2.40
2018-08-04T15:06:50.801Z,2.20
2018-08-04T15:08:44.228Z,2.40
2018-08-04T15:09:44.156Z,2.90
2018-08-04T15:11:37.637Z,2.50
2018-08-04T15:12:37.564Z,2.50
2018-08-04T15:14:30.465Z,2.60
2018-08-04T15:15:30.469Z,2.50
2018-08-04T15:17:24.434Z,2.90
2018-08-04T15:18:23.844Z,2.50
2018-08-04T15:20:17.801Z,2.50
2018-08-04T15:21:17.782Z,2.60
2018-08-04T15:23:10.240Z,2.70
2018-08-04T15:24:10.232Z,2.40
2018-08-04T15:26:03.210Z,2.40
2018-08-04T15:27:03.133Z,2.30
2018-08-04T15:28:56.539Z,2.50
2018-08-04T15:29:56.520Z,2.20
2018-08-04T15:31:49.432Z,2.20
2018-08-04T15:32:49.896Z,2.40
2018-08-04T15:34:42.820Z,2.20
2018-08-04T15:35:42.807Z,2.30
2018-08-04T15:37:36.209Z,2.30
2018-08-04T15:38:36.195Z,2.20
2018-08-04T15:40:29.122Z,2.50
2018-08-04T15:41:29.089Z,2.50
2018-08-04T15:43:22.523Z,2.40
2018-08-04T15:44:22.483Z,2.00
2018-08-04T15:46:15.395Z,2.10
2018-08-04T15:47:15.375Z,2.30
2018-08-04T15:49:08.292Z,2.40
2018-08-04T15:50:08.280Z,2.40
2018-08-04T15:52:01.203Z,2.40
2018-08-04T15:53:01.195Z,2.40
2018-08-04T15:54:54.596Z,2.20
2018-08-04T15:55:54.575Z,2.40
2018-08-04T15:57:47.488Z,2.30
2018-08-04T15:58:47.480Z,2.50
2018-08-04T16:00:40.384Z,2.30
2018-08-04T16:01:40.368Z,3.20
2018-08-04T16:03:33.302Z,2.30
2018-08-04T16:04:33.267Z,2.20
2018-08-04T16:06:26.184Z,2.30
2018-08-04T16:07:26.168Z,2.30
2018-08-04T16:09:19.093Z,2.10
2018-08-04T16:10:19.060Z,2.30
2018-08-04T16:12:12.480Z,3.10
2018-08-04T16:13:12.459Z,2.60
2018-08-04T16:15:05.378Z,2.40
2018-08-04T16:16:05.357Z,2.40
2018-08-04T16:17:58.757Z,2.90
2018-08-04T16:18:58.745Z,2.90
2018-08-04T16:20:51.659Z,2.80
2018-08-04T16:21:51.661Z,2.70
2018-08-04T16:23:44.557Z,2.90
2018-08-04T16:24:44.535Z,2.80
2018-08-04T16:26:37.940Z,2.20
2018-08-04T16:27:37.928Z,2.20
2018-08-04T16:29:30.876Z,2.60
2018-08-04T16:30:31.383Z,2.50
2018-08-04T16:32:23.757Z,2.50
2018-08-04T16:33:23.742Z,2.40
2018-08-04T16:35:16.658Z,2.30
2018-08-04T16:36:16.641Z,2.40
2018-08-04T16:38:10.052Z,5.00
2018-08-04T16:39:10.041Z,5.40
2018-08-04T16:41:02.952Z,11.80
2018-08-04T16:42:02.940Z,8.20
2018-08-04T16:43:56.337Z,6.60
2018-08-04T16:44:56.329Z,6.10
2018-08-04T16:46:49.755Z,4.30
2018-08-04T16:47:49.730Z,3.80
2018-08-04T16:49:42.636Z,3.10
2018-08-04T16:50:42.628Z,2.90
2018-08-04T16:52:35.543Z,2.40
2018-08-04T16:53:35.529Z,2.40
2018-08-04T16:55:28.942Z,2.50
2018-08-04T16:56:28.908Z,2.70
2018-08-04T16:58:22.359Z,2.40
2018-08-04T16:59:21.811Z,2.80
2018-08-04T17:01:15.287Z,2.70
2018-08-04T17:02:15.198Z,2.30
2018-08-04T17:04:08.125Z,2.10
2018-08-04T17:05:08.106Z,2.20
2018-08-04T17:07:01.511Z,2.40
2018-08-04T17:08:01.503Z,2.50
2018-08-04T17:09:54.404Z,2.40
2018-08-04T17:10:54.391Z,2.70
2018-08-04T17:12:47.872Z,2.20
2018-08-04T17:13:47.776Z,2.10
2018-08-04T17:15:41.180Z,2.50
2018-08-04T17:16:41.162Z,2.50
2018-08-04T17:18:34.577Z,2.30
2018-08-04T17:19:34.554Z,2.50
2018-08-04T17:21:27.472Z,2.60
2018-08-04T17:22:27.458Z,2.50
2018-08-04T17:24:20.871Z,2.10
2018-08-04T17:25:20.851Z,2.40
2018-08-04T17:27:14.875Z,2.20
2018-08-04T17:28:14.840Z,2.30
2018-08-04T17:30:07.743Z,2.30
2018-08-04T17:31:07.705Z,2.20
2018-08-04T17:33:01.108Z,2.40
2018-08-04T17:34:01.099Z,2.40
2018-08-04T17:35:54.512Z,2.30
2018-08-04T17:36:54.483Z,2.10
2018-08-04T17:38:47.888Z,2.30
2018-08-04T17:39:47.873Z,2.30
2018-08-04T17:41:41.277Z,2.10
2018-08-04T17:42:41.262Z,2.10
2018-08-04T17:44:34.232Z,2.20
2018-08-04T17:45:34.161Z,2.20
2018-08-04T17:47:27.564Z,2.00
2018-08-04T17:48:27.547Z,2.30
2018-08-04T17:50:20.460Z,2.10
2018-08-04T17:51:20.439Z,2.20
2018-08-04T17:53:14.243Z,1.90
2018-08-04T17:54:13.350Z,2.20
2018-08-04T17:56:06.807Z,1.90
2018-08-04T17:57:06.303Z,2.10
2018-08-04T17:58:59.133Z,2.20
2018-08-04T17:59:59.119Z,2.30
2018-08-04T18:01:52.033Z,2.00
2018-08-04T18:02:52.013Z,2.20
2018-08-04T18:04:45.418Z,2.40
2018-08-04T18:05:45.400Z,2.30
2018-08-04T18:07:38.316Z,2.10
2018-08-04T18:08:38.307Z,2.50
2018-08-04T18:10:31.220Z,2.50
2018-08-04T18:11:31.198Z,2.30
2018-08-04T18:13:24.119Z,2.00
2018-08-04T18:14:24.137Z,2.30
2018-08-04T18:16:17.505Z,2.20
2018-08-04T18:17:17.493Z,2.40
2018-08-04T18:19:10.489Z,2.10
2018-08-04T18:20:10.442Z,2.20
2018-08-04T18:22:03.342Z,2.20
2018-08-04T18:23:03.331Z,1.90
2018-08-04T18:24:56.243Z,2.10
2018-08-04T18:25:56.227Z,1.90
2018-08-04T18:27:49.139Z,2.00
2018-08-04T18:28:49.119Z,2.00
2018-08-04T18:30:42.044Z,2.30
2018-08-04T18:31:42.012Z,2.20
2018-08-04T18:33:34.953Z,2.00
2018-08-04T18:34:34.914Z,2.30
2018-08-04T18:36:27.823Z,2.20
2018-08-04T18:37:27.802Z,2.00
2018-08-04T18:39:21.212Z,2.50
2018-08-04T18:40:21.189Z,2.60
2018-08-04T18:42:14.124Z,2.30
2018-08-04T18:43:14.080Z,2.50
2018-08-04T18:45:06.993Z,2.60
2018-08-04T18:46:06.976Z,2.70
2018-08-04T18:47:59.893Z,2.80
2018-08-04T18:48:59.871Z,2.60
2018-08-04T18:50:53.283Z,2.50
2018-08-04T18:51:53.254Z,2.30
2018-08-04T18:53:46.169Z,2.40
2018-08-04T18:54:46.147Z,2.30
2018-08-04T18:56:39.060Z,2.30
2018-08-04T18:57:39.042Z,2.50
2018-08-04T18:59:32.021Z,2.20
2018-08-04T19:00:31.938Z,2.30
2018-08-04T19:02:24.846Z,2.60
2018-08-04T19:03:24.836Z,2.30
2018-08-04T19:05:17.737Z,2.20
2018-08-04T19:06:17.731Z,2.30
2018-08-04T19:08:10.644Z,2.20
2018-08-04T19:09:10.629Z,2.20
2018-08-04T19:11:04.590Z,2.30
2018-08-04T19:12:04.037Z,2.40